Chestline, Illinois
Current Conditions -  °F | °C
As of 3:54 AM on Saturday 20 Dec 2014 (Local Time) from KUIN Reporting Station
Overcast Overcast  
Wind Chill: 26°   Ceiling: 4500
Heat Index: 32°   Visibility: 7mi
Dew Point: 27°   Wind: 6mph
Humidity: 82%   Direction: 150°SSE
Pressure: 30.23"   Gusts: NA
Location:  39.8875°N, 91.0352°W
Report Text: KUIN 200954Z AUTO 15005KT 7SM FEW031 BKN045 OVC060 00/M03 A3023 RMK AO2 SLP244 T00001028
Loading
Personal Weather Stations






























Interactive Weather Map New forecast layout! Learn more

10-Day Weather Forecast

Advertisements
Track Severe Weather on mobile